Time;durP1;ratioP1;P1;durP2;ratioP2;P2;SDS_P1;SDS_P2;PMS_P1;PMS_P2;Temp;Humidity;BMP_temperature;BMP_pressure;BME280_temperature;BME280_humidity;BME280_pressure;Samples;Min_cycle;Max_cycle;Signal;HPM_P1;HPM_P2
2023/10/08 00:01:03;;;;;;;4.47;2.50;;;19.40;73.20;;;;;;5115448;28;20184;-62
2023/10/08 00:03:29;;;;;;;3.88;2.83;;;19.40;73.20;;;;;;5116226;28;20169;-62
2023/10/08 00:05:55;;;;;;;6.35;2.67;;;19.40;73.20;;;;;;5134996;27;20173;-62
2023/10/08 00:08:21;;;;;;;4.72;3.35;;;19.40;73.20;;;;;;5124958;27;20285;-64
2023/10/08 00:10:47;;;;;;;4.72;3.10;;;19.40;73.20;;;;;;5121321;27;20252;-64
2023/10/08 00:13:15;;;;;;;5.25;3.20;;;19.40;73.20;;;;;;5135310;27;20208;-66
2023/10/08 00:15:52;;;;;;;2.85;2.35;;;19.40;73.20;;;;;;5135957;27;20227;-63
2023/10/08 00:18:19;;;;;;;3.72;2.97;;;19.40;73.20;;;;;;5136312;27;20220;-64
2023/10/08 00:21:06;;;;;;;4.03;2.95;;;19.40;73.20;;;;;;5136381;27;20275;-63
2023/10/08 00:23:35;;;;;;;3.70;2.80;;;19.40;73.10;;;;;;5135554;27;20180;-63
2023/10/08 00:26:04;;;;;;;4.32;3.10;;;19.40;73.20;;;;;;5136658;27;20200;-63
2023/10/08 00:28:31;;;;;;;6.18;2.90;;;19.40;73.20;;;;;;5136405;27;20176;-64
2023/10/08 00:30:57;;;;;;;3.53;2.80;;;19.40;73.20;;;;;;5135554;27;20176;-63
2023/10/08 00:33:24;;;;;;;4.30;2.85;;;19.40;73.10;;;;;;5135962;27;20190;-62
2023/10/08 00:35:49;;;;;;;4.28;2.53;;;19.40;73.10;;;;;;5135673;27;20590;-62
2023/10/08 00:38:16;;;;;;;4.22;2.72;;;19.40;73.10;;;;;;5135926;27;20725;-64
2023/10/08 00:40:45;;;;;;;4.05;2.95;;;19.40;73.20;;;;;;5133570;27;20180;-62
2023/10/08 00:43:35;;;;;;;5.10;2.63;;;19.30;73.20;;;;;;5114508;28;20185;-63
2023/10/08 00:46:18;;;;;;;4.28;2.83;;;19.40;73.20;;;;;;5115498;28;20599;-62
2023/10/08 00:48:45;;;;;;;3.35;2.67;;;19.40;73.10;;;;;;5115324;28;20235;-63
2023/10/08 00:51:40;;;;;;;4.28;2.75;;;19.30;73.10;;;;;;5096239;28;20218;-64
2023/10/08 00:54:10;;;;;;;4.45;3.05;;;19.30;73.10;;;;;;5099987;28;20184;-64
2023/10/08 00:59:23;;;;;;;5.80;2.97;;;19.40;73.20;;;;;;5114923;28;20288;-63
2023/10/08 01:01:53;;;;;;;3.22;2.78;;;19.30;73.10;;;;;;5115401;28;20169;-62
2023/10/08 01:04:23;;;;;;;5.60;3.10;;;19.30;73.10;;;;;;5116279;27;20173;-62
2023/10/08 01:06:53;;;;;;;3.70;2.95;;;19.30;73.10;;;;;;5135833;27;20180;-63
2023/10/08 01:09:22;;;;;;;4.45;2.90;;;19.30;73.10;;;;;;5117740;27;20180;-63
2023/10/08 01:12:15;;;;;;;3.92;2.78;;;19.30;73.10;;;;;;5134900;27;20179;-64
2023/10/08 01:14:46;;;;;;;5.65;2.97;;;19.30;73.10;;;;;;5135362;27;20749;-64
2023/10/08 01:17:16;;;;;;;4.93;2.72;;;19.40;73.10;;;;;;5135426;27;20169;-64
2023/10/08 01:19:50;;;;;;;3.45;3.10;;;19.30;73.10;;;;;;5134597;27;20277;-64
2023/10/08 01:22:22;;;;;;;4.07;2.30;;;19.30;73.10;;;;;;5135064;27;20177;-64
2023/10/08 01:24:50;;;;;;;3.25;2.60;;;19.30;73.10;;;;;;5135392;27;20185;-64
2023/10/08 01:27:24;;;;;;;5.85;2.92;;;19.30;73.10;;;;;;5134062;27;20168;-64
2023/10/08 01:29:50;;;;;;;5.00;2.83;;;19.30;73.10;;;;;;5135488;27;20222;-63
2023/10/08 01:32:16;;;;;;;4.40;2.80;;;19.30;73.00;;;;;;5133771;27;20176;-63
2023/10/08 01:34:45;;;;;;;3.58;3.10;;;19.30;73.20;;;;;;5134954;27;20213;-62
2023/10/08 01:37:18;;;;;;;4.18;2.60;;;19.30;73.10;;;;;;5134828;27;20549;-63
2023/10/08 01:39:48;;;;;;;4.93;2.72;;;19.30;73.10;;;;;;5134167;27;20236;-63
2023/10/08 01:42:20;;;;;;;3.20;2.35;;;19.30;73.80;;;;;;5134816;27;20200;-62
2023/10/08 01:44:50;;;;;;;4.57;2.75;;;19.30;73.10;;;;;;5135153;27;20255;-62
2023/10/08 01:47:16;;;;;;;4.90;2.65;;;19.30;73.20;;;;;;5133744;27;20248;-63
2023/10/08 01:49:46;;;;;;;3.30;2.63;;;19.30;73.20;;;;;;5132864;27;20267;-63
2023/10/08 01:52:20;;;;;;;3.08;2.50;;;19.30;73.20;;;;;;5134403;27;20211;-64
2023/10/08 01:54:46;;;;;;;5.05;2.92;;;19.40;73.20;;;;;;5134114;27;20183;-64
2023/10/08 01:57:12;;;;;;;3.15;2.45;;;19.30;73.20;;;;;;5134501;27;20176;-64
2023/10/08 01:59:38;;;;;;;3.90;2.90;;;19.30;73.20;;;;;;5134214;27;20573;-63
2023/10/08 02:02:05;;;;;;;4.00;2.97;;;19.30;73.10;;;;;;5133674;27;20244;-63
2023/10/08 02:04:33;;;;;;;4.00;2.67;;;19.30;73.30;;;;;;5134412;27;20180;-63
2023/10/08 02:06:59;;;;;;;3.83;2.80;;;19.30;73.10;;;;;;5133165;27;20164;-63
2023/10/08 02:09:26;;;;;;;4.18;2.97;;;19.30;73.20;;;;;;5133305;27;20183;-64
2023/10/08 02:11:53;;;;;;;4.60;2.70;;;19.30;73.30;;;;;;5134324;27;20645;-64
2023/10/08 02:14:20;;;;;;;4.63;2.60;;;19.30;73.30;;;;;;5133094;27;20176;-64
2023/10/08 02:16:45;;;;;;;3.30;2.60;;;19.30;73.20;;;;;;5134175;27;20169;-63
2023/10/08 02:19:11;;;;;;;3.95;2.90;;;19.30;73.30;;;;;;5133773;27;20207;-63
2023/10/08 02:21:40;;;;;;;3.40;2.72;;;19.30;73.20;;;;;;5133263;27;20176;-63
2023/10/08 02:24:07;;;;;;;2.60;2.40;;;19.30;73.30;;;;;;5133927;27;20637;-64
2023/10/08 02:26:34;;;;;;;3.13;2.70;;;19.30;73.30;;;;;;5134116;27;20217;-63
2023/10/08 02:29:06;;;;;;;4.25;2.72;;;19.30;73.20;;;;;;5120791;27;20258;-63
2023/10/08 02:31:31;;;;;;;4.40;2.65;;;19.30;73.20;;;;;;5132791;27;20557;-62
2023/10/08 02:33:58;;;;;;;3.25;2.60;;;19.30;73.20;;;;;;5133666;27;20519;-63
2023/10/08 02:36:24;;;;;;;4.93;2.70;;;19.30;73.20;;;;;;5133321;27;20564;-62
2023/10/08 02:38:50;;;;;;;3.42;2.55;;;19.30;74.00;;;;;;5133853;27;20208;-62
2023/10/08 02:41:16;;;;;;;4.40;3.03;;;19.30;73.20;;;;;;5133581;27;20237;-65
2023/10/08 02:43:44;;;;;;;4.40;2.55;;;19.20;73.10;;;;;;5133179;27;20184;-63
2023/10/08 02:46:14;;;;;;;3.15;2.33;;;19.30;73.20;;;;;;5133772;27;20173;-63
2023/10/08 02:48:40;;;;;;;3.00;2.63;;;19.30;73.40;;;;;;5133622;27;20239;-63
2023/10/08 02:51:14;;;;;;;3.97;2.60;;;19.30;73.20;;;;;;5133140;27;20169;-64
2023/10/08 02:53:43;;;;;;;3.80;2.33;;;19.30;73.30;;;;;;5133790;27;20188;-64
2023/10/08 02:56:13;;;;;;;2.85;2.40;;;19.30;73.30;;;;;;5133288;27;20533;-65
2023/10/08 02:58:43;;;;;;;3.75;2.70;;;19.30;73.40;;;;;;5132344;27;20215;-63
2023/10/08 03:01:12;;;;;;;3.70;2.50;;;19.30;73.40;;;;;;5133241;27;20224;-63
2023/10/08 03:03:40;;;;;;;4.15;2.60;;;19.30;73.30;;;;;;5132966;27;20177;-63
2023/10/08 03:06:11;;;;;;;3.88;2.70;;;19.30;73.30;;;;;;5133465;27;20229;-63
2023/10/08 03:08:37;;;;;;;3.53;2.47;;;19.20;73.20;;;;;;5133486;28;20510;-64
2023/10/08 03:11:03;;;;;;;3.88;2.65;;;19.20;74.10;;;;;;5132618;28;20195;-64
2023/10/08 03:13:29;;;;;;;4.32;2.53;;;19.30;73.30;;;;;;5133126;28;20206;-64
2023/10/08 03:16:07;;;;;;;5.05;2.53;;;19.30;73.30;;;;;;5133586;28;20172;-63
2023/10/08 03:18:36;;;;;;;2.95;2.50;;;19.30;73.30;;;;;;5133844;27;20207;-63
2023/10/08 03:21:19;;;;;;;2.95;2.58;;;19.30;73.40;;;;;;5137509;27;20218;-63
2023/10/08 03:23:47;;;;;;;3.25;2.58;;;19.30;73.30;;;;;;5137580;27;20630;-63
2023/10/08 03:26:32;;;;;;;4.88;2.70;;;19.20;73.20;;;;;;5136481;27;20172;-63
2023/10/08 03:28:58;;;;;;;4.05;2.53;;;19.30;73.40;;;;;;5137276;27;20191;-63
2023/10/08 03:31:44;;;;;;;4.32;2.22;;;19.30;73.30;;;;;;5137359;27;20172;-62
2023/10/08 03:34:14;;;;;;;3.55;2.25;;;19.30;73.30;;;;;;5136932;27;20187;-62
2023/10/08 03:36:47;;;;;;;2.90;2.47;;;19.30;73.40;;;;;;5137382;27;20259;-62
2023/10/08 03:39:15;;;;;;;3.10;2.17;;;19.30;73.40;;;;;;5136430;27;20230;-63
2023/10/08 03:41:41;;;;;;;3.10;2.55;;;19.30;73.40;;;;;;5137281;27;20333;-62
2023/10/08 03:44:13;;;;;;;3.00;2.33;;;19.30;73.40;;;;;;5137160;27;20172;-62
2023/10/08 03:46:46;;;;;;;3.00;2.15;;;19.30;73.40;;;;;;5136159;27;20653;-62
2023/10/08 03:51:48;;;;;;;4.72;2.78;;;19.30;73.40;;;;;;5137312;27;20160;-63
2023/10/08 03:54:17;;;;;;;3.63;2.67;;;19.20;73.40;;;;;;5136134;27;20179;-64
2023/10/08 03:56:45;;;;;;;3.10;2.42;;;19.30;73.40;;;;;;5136901;27;20177;-64
2023/10/08 04:01:54;;;;;;;3.55;2.45;;;19.30;73.50;;;;;;5115715;28;20622;-62
2023/10/08 04:04:30;;;;;;;3.35;2.33;;;19.30;73.50;;;;;;5116267;28;20651;-62
2023/10/08 04:07:09;;;;;;;2.75;2.47;;;19.30;73.40;;;;;;5115696;28;20191;-65
2023/10/08 04:09:39;;;;;;;4.32;2.72;;;19.30;73.50;;;;;;5116259;28;20176;-64
2023/10/08 04:12:10;;;;;;;3.03;2.13;;;19.30;73.50;;;;;;5116132;28;20169;-64
2023/10/08 04:14:36;;;;;;;3.15;2.45;;;19.20;73.30;;;;;;5115584;28;20256;-64
2023/10/08 04:17:01;;;;;;;2.85;2.35;;;19.20;73.40;;;;;;5116007;28;20311;-64
2023/10/08 04:19:27;;;;;;;3.53;2.30;;;19.20;73.40;;;;;;5115845;28;20700;-63
2023/10/08 04:21:56;;;;;;;2.60;2.38;;;19.30;73.50;;;;;;5115267;28;20214;-62
2023/10/08 04:24:34;;;;;;;2.63;2.33;;;19.20;73.40;;;;;;5115396;28;20177;-63
2023/10/08 04:27:05;;;;;;;2.70;2.17;;;19.20;73.50;;;;;;5115867;28;20173;-64
2023/10/08 04:29:32;;;;;;;3.55;2.42;;;19.20;73.50;;;;;;5114346;27;20177;-62
2023/10/08 04:32:07;;;;;;;3.70;2.55;;;19.20;73.50;;;;;;5115157;28;20549;-62
2023/10/08 04:34:34;;;;;;;4.55;2.45;;;19.30;73.60;;;;;;5115722;28;20172;-61
2023/10/08 04:37:03;;;;;;;3.15;2.50;;;19.20;73.50;;;;;;5115023;28;20177;-61
2023/10/08 04:39:32;;;;;;;4.82;3.03;;;19.20;73.50;;;;;;5115596;28;20209;-63
2023/10/08 04:42:09;;;;;;;3.60;2.40;;;19.30;73.70;;;;;;5114837;28;20575;-62
2023/10/08 04:44:38;;;;;;;3.83;3.03;;;19.20;73.60;;;;;;5115430;28;20252;-63
2023/10/08 04:47:31;;;;;;;2.83;2.38;;;19.20;73.60;;;;;;5115169;28;20266;-63
2023/10/08 04:49:56;;;;;;;3.65;2.38;;;19.20;73.60;;;;;;5114637;28;20573;-63
2023/10/08 04:52:25;;;;;;;4.18;2.10;;;19.20;73.60;;;;;;5115120;28;20294;-64
2023/10/08 04:54:54;;;;;;;3.42;2.50;;;19.20;73.60;;;;;;5115272;28;20631;-64
2023/10/08 04:57:22;;;;;;;3.15;2.47;;;19.20;73.60;;;;;;5114354;28;20181;-63
2023/10/08 04:59:50;;;;;;;2.72;2.25;;;19.20;73.60;;;;;;5114995;28;20204;-63
2023/10/08 05:02:34;;;;;;;3.85;2.40;;;19.30;73.70;;;;;;5115071;28;20284;-62
2023/10/08 05:13:01;;;;;;;3.25;2.10;;;19.20;73.70;;;;;;5115228;28;20176;-64
2023/10/08 05:15:36;;;;;;;2.45;2.17;;;19.20;73.60;;;;;;5114981;28;20256;-63
2023/10/08 05:23:21;;;;;;;2.47;1.95;;;19.20;73.60;;;;;;5114877;28;20715;-63
2023/10/08 05:25:57;;;;;;;2.75;1.85;;;19.20;73.60;;;;;;5113928;28;20639;-62
2023/10/08 05:28:26;;;;;;;2.85;2.33;;;19.20;73.60;;;;;;5114499;28;20168;-63
2023/10/08 05:31:11;;;;;;;4.93;2.58;;;19.20;73.60;;;;;;5114564;28;20268;-62
2023/10/08 05:39:29;;;;;;;3.50;2.17;;;19.20;73.50;;;;;;5113405;28;20211;-62
2023/10/08 05:41:51;;;;;;;3.00;2.22;;;19.20;73.60;;;;;;5114090;28;20269;-63
2023/10/08 06:13:02;;;;;;;3.65;2.03;;;19.20;73.60;;;;;;5114121;28;20176;-64
2023/10/08 06:15:44;;;;;;;2.75;2.20;;;19.20;73.60;;;;;;5113027;28;20185;-63
2023/10/08 06:18:10;;;;;;;3.33;2.20;;;19.20;73.60;;;;;;5113253;28;20212;-63
2023/10/08 06:20:39;;;;;;;3.22;1.73;;;19.20;73.70;;;;;;5112961;28;20612;-63
2023/10/08 06:23:07;;;;;;;2.63;2.00;;;19.20;73.70;;;;;;5117352;27;20181;-64
2023/10/08 06:25:33;;;;;;;2.33;2.13;;;19.20;73.70;;;;;;5112583;28;20651;-64
2023/10/08 06:27:59;;;;;;;1.92;1.70;;;19.20;73.80;;;;;;5112822;28;20192;-64
2023/10/08 06:30:29;;;;;;;2.13;1.92;;;19.20;74.50;;;;;;5113391;28;20165;-63
2023/10/08 06:32:56;;;;;;;2.83;2.33;;;19.20;73.70;;;;;;5113524;28;20177;-63
2023/10/08 06:35:25;;;;;;;2.70;1.77;;;19.20;74.50;;;;;;5112367;28;20328;-63
2023/10/08 06:37:54;;;;;;;2.67;2.10;;;19.20;73.60;;;;;;5113439;28;20513;-62
2023/10/08 06:43:21;;;;;;;2.30;1.85;;;19.20;73.70;;;;;;5112581;28;20169;-64
2023/10/08 06:45:47;;;;;;;3.33;2.10;;;19.10;73.60;;;;;;5113226;28;20173;-63
2023/10/08 06:48:18;;;;;;;3.35;1.75;;;19.10;73.70;;;;;;5112789;28;20225;-63
2023/10/08 06:50:47;;;;;;;2.83;1.88;;;19.20;73.70;;;;;;5112556;28;20623;-64
2023/10/08 06:53:14;;;;;;;2.10;1.85;;;19.10;73.60;;;;;;5112412;28;20564;-65
2023/10/08 06:55:43;;;;;;;1.98;1.80;;;19.20;73.70;;;;;;5112351;28;20217;-64
2023/10/08 06:58:08;;;;;;;2.60;2.00;;;19.10;73.60;;;;;;5133221;27;20196;-64
2023/10/08 07:00:47;;;;;;;2.20;2.00;;;19.10;73.60;;;;;;5133534;27;20177;-63
2023/10/08 07:03:17;;;;;;;2.22;1.67;;;19.10;73.60;;;;;;5112129;28;20187;-63
2023/10/08 07:05:54;;;;;;;1.73;1.58;;;19.10;73.60;;;;;;5113141;28;20225;-63
2023/10/08 07:08:23;;;;;;;1.95;1.80;;;19.20;73.70;;;;;;5112715;28;20176;-64
2023/10/08 07:10:51;;;;;;;1.65;1.52;;;19.10;73.60;;;;;;5112341;28;20173;-64
2023/10/08 07:13:18;;;;;;;1.63;1.52;;;19.10;73.60;;;;;;5112614;28;20176;-65
2023/10/08 07:15:44;;;;;;;1.90;1.70;;;19.10;73.60;;;;;;5113004;28;20238;-63
2023/10/08 07:18:12;;;;;;;2.20;1.92;;;19.10;73.70;;;;;;5111938;28;20223;-64
2023/10/08 07:20:39;;;;;;;2.58;2.00;;;19.10;73.60;;;;;;5112867;28;20181;-64
2023/10/08 07:26:17;;;;;;;2.60;2.08;;;19.10;73.50;;;;;;5112080;28;20172;-63
2023/10/08 07:28:43;;;;;;;2.08;1.88;;;19.20;73.60;;;;;;5112841;28;20189;-63
2023/10/08 07:31:16;;;;;;;3.95;2.08;;;19.10;73.50;;;;;;5111855;28;20262;-62
2023/10/08 07:33:56;;;;;;;2.25;1.95;;;19.10;73.50;;;;;;5112560;28;20996;-62
2023/10/08 07:36:30;;;;;;;4.15;2.00;;;19.10;73.50;;;;;;5112239;28;20220;-63
2023/10/08 07:38:56;;;;;;;1.98;1.80;;;19.20;73.60;;;;;;5112018;28;20295;-63
2023/10/08 07:41:22;;;;;;;2.00;1.80;;;19.20;73.70;;;;;;5112347;28;20302;-63
2023/10/08 07:43:58;;;;;;;2.15;1.95;;;19.20;73.70;;;;;;5112827;28;20177;-63
2023/10/08 07:46:26;;;;;;;2.72;2.25;;;19.10;73.70;;;;;;5111664;28;20179;-63
2023/10/08 07:48:54;;;;;;;2.60;2.13;;;19.10;73.70;;;;;;5112547;28;20354;-63
2023/10/08 07:51:23;;;;;;;2.05;1.85;;;19.10;73.80;;;;;;5112468;28;20173;-64
2023/10/08 07:53:55;;;;;;;1.85;1.70;;;19.20;73.90;;;;;;5122712;28;20623;-64
2023/10/08 07:56:21;;;;;;;2.15;1.90;;;19.10;73.90;;;;;;5132637;28;20706;-65
2023/10/08 07:58:47;;;;;;;1.70;1.60;;;19.10;73.90;;;;;;5132959;28;20318;-63
2023/10/08 08:01:16;;;;;;;2.55;1.80;;;19.10;73.90;;;;;;5132181;28;20245;-63
2023/10/08 08:03:42;;;;;;;5.10;2.22;;;19.10;73.90;;;;;;5133001;28;20176;-62
2023/10/08 08:06:09;;;;;;;3.47;1.85;;;19.10;74.00;;;;;;5135454;27;20169;-64
2023/10/08 08:08:35;;;;;;;2.28;2.00;;;19.10;73.90;;;;;;5136926;27;20594;-64
2023/10/08 08:11:11;;;;;;;4.22;1.70;;;19.20;73.90;;;;;;5136526;27;20177;-65
2023/10/08 08:13:43;;;;;;;2.90;1.98;;;19.10;73.90;;;;;;5135925;27;20200;-65
2023/10/08 08:16:16;;;;;;;2.63;1.88;;;19.10;73.90;;;;;;5136600;27;20172;-64
2023/10/08 08:18:52;;;;;;;2.17;1.52;;;19.10;74.00;;;;;;5136641;27;20223;-64
2023/10/08 08:21:19;;;;;;;2.22;2.03;;;19.10;74.10;;;;;;5135613;27;20175;-63
2023/10/08 08:23:49;;;;;;;2.22;1.88;;;19.10;74.00;;;;;;5136106;27;20184;-63
2023/10/08 08:26:27;;;;;;;2.15;1.95;;;19.10;74.00;;;;;;5116556;27;20180;-63
2023/10/08 08:28:56;;;;;;;2.35;1.95;;;19.10;74.00;;;;;;5115341;28;20268;-64
2023/10/08 08:31:23;;;;;;;2.13;1.83;;;19.10;74.00;;;;;;5115271;28;20536;-63
2023/10/08 08:33:59;;;;;;;1.83;1.73;;;19.10;74.00;;;;;;5115834;28;20173;-62
2023/10/08 08:36:28;;;;;;;2.60;2.20;;;19.10;74.00;;;;;;5114742;28;20173;-63
2023/10/08 08:38:54;;;;;;;2.95;2.05;;;19.10;74.00;;;;;;5115910;28;20237;-63
2023/10/08 08:41:22;;;;;;;2.55;1.67;;;19.10;74.00;;;;;;5114610;28;20196;-62
2023/10/08 08:43:49;;;;;;;2.65;1.67;;;19.10;74.00;;;;;;5115700;28;20181;-63
2023/10/08 08:46:15;;;;;;;2.08;1.88;;;19.10;74.10;;;;;;5115253;28;20536;-63
2023/10/08 08:48:42;;;;;;;1.90;1.80;;;19.10;74.00;;;;;;5114451;28;20221;-64
2023/10/08 08:51:09;;;;;;;2.10;1.90;;;19.10;74.10;;;;;;5115111;28;20209;-64
2023/10/08 08:53:35;;;;;;;1.80;1.50;;;19.10;74.00;;;;;;5130300;27;20206;-63
2023/10/08 08:56:06;;;;;;;2.88;1.83;;;19.10;74.00;;;;;;5135194;27;20180;-65
2023/10/08 08:58:35;;;;;;;2.60;1.98;;;19.10;74.00;;;;;;5117363;27;20208;-63
2023/10/08 09:01:03;;;;;;;1.83;1.70;;;19.10;74.00;;;;;;5135664;27;20171;-63
2023/10/08 09:03:32;;;;;;;1.88;1.60;;;19.00;73.90;;;;;;5134819;27;20176;-62
2023/10/08 09:05:58;;;;;;;1.48;1.27;;;19.10;74.10;;;;;;5135644;27;20700;-63
2023/10/08 09:08:36;;;;;;;2.95;1.85;;;19.10;74.00;;;;;;5135633;27;20196;-63
2023/10/08 09:11:04;;;;;;;2.92;1.73;;;19.10;74.00;;;;;;5134848;27;20172;-64
2023/10/08 09:13:30;;;;;;;2.47;1.80;;;19.10;73.90;;;;;;5135306;27;20257;-64
2023/10/08 09:15:57;;;;;;;2.00;1.67;;;19.10;74.00;;;;;;5134730;27;20724;-63
2023/10/08 09:18:24;;;;;;;1.80;1.70;;;19.00;73.90;;;;;;5116537;27;20215;-63
2023/10/08 09:20:50;;;;;;;2.08;1.75;;;19.10;73.90;;;;;;5135385;27;20538;-63
2023/10/08 09:23:21;;;;;;;2.67;1.65;;;19.10;73.90;;;;;;5122147;27;20169;-64
2023/10/08 09:25:50;;;;;;;1.83;1.50;;;19.10;73.90;;;;;;5114846;28;20184;-63
2023/10/08 09:28:16;;;;;;;2.40;1.63;;;19.10;73.90;;;;;;5114369;28;20169;-64
2023/10/08 09:30:44;;;;;;;3.28;1.60;;;19.10;73.70;;;;;;5113914;28;20269;-62
2023/10/08 09:33:15;;;;;;;2.33;1.63;;;19.10;73.80;;;;;;5114546;28;20247;-63
2023/10/08 09:35:43;;;;;;;1.50;1.40;;;19.10;73.80;;;;;;5114502;28;20177;-62
2023/10/08 09:38:08;;;;;;;1.70;1.60;;;19.10;73.70;;;;;;5113361;28;20644;-63
2023/10/08 09:40:38;;;;;;;1.80;1.38;;;19.00;73.70;;;;;;5114366;28;20191;-62
2023/10/08 09:43:04;;;;;;;3.30;1.92;;;19.10;73.70;;;;;;5114082;28;20659;-63
2023/10/08 09:45:30;;;;;;;2.35;1.48;;;19.10;73.80;;;;;;5113639;28;20208;-62
2023/10/08 09:47:55;;;;;;;2.83;1.75;;;19.10;73.70;;;;;;5114226;28;20590;-63
2023/10/08 09:50:29;;;;;;;2.15;1.55;;;19.10;73.60;;;;;;5113870;28;20203;-63
2023/10/08 09:53:04;;;;;;;1.70;1.30;;;19.10;73.60;;;;;;5096529;28;20184;-64
2023/10/08 09:55:29;;;;;;;1.98;1.63;;;19.10;73.60;;;;;;5113885;28;20184;-63
2023/10/08 09:57:55;;;;;;;2.60;1.80;;;19.10;73.50;;;;;;5114297;28;20226;-64
2023/10/08 10:00:30;;;;;;;2.05;1.60;;;19.10;73.40;;;;;;5113272;28;20181;-63
2023/10/08 10:03:01;;;;;;;1.92;1.60;;;19.10;73.30;;;;;;5097516;28;20181;-62
2023/10/08 10:05:29;;;;;;;1.80;1.50;;;19.10;73.70;;;;;;5096041;28;20627;-62
2023/10/08 10:07:56;;;;;;;1.58;1.40;;;19.10;73.40;;;;;;5113605;28;20197;-63
2023/10/08 10:10:31;;;;;;;2.35;1.95;;;19.10;73.40;;;;;;5113745;28;20209;-64
2023/10/08 10:13:00;;;;;;;1.80;1.45;;;19.10;73.50;;;;;;5113288;28;20176;-65
2023/10/08 10:15:27;;;;;;;1.48;1.27;;;19.10;73.50;;;;;;5113642;28;20173;-64
2023/10/08 10:17:52;;;;;;;1.13;1.02;;;19.10;73.40;;;;;;5113705;28;20263;-63
2023/10/08 10:20:18;;;;;;;1.40;1.30;;;19.10;73.50;;;;;;5094476;28;20268;-63
2023/10/08 10:22:44;;;;;;;1.23;1.15;;;19.10;73.50;;;;;;5086263;27;20169;-63
2023/10/08 10:25:16;;;;;;;1.52;1.20;;;19.10;73.50;;;;;;5115813;27;20674;-64
2023/10/08 10:27:55;;;;;;;1.75;1.40;;;19.20;73.50;;;;;;5132571;27;20646;-63
2023/10/08 10:30:22;;;;;;;1.55;1.45;;;19.10;73.50;;;;;;5117462;27;20180;-63
2023/10/08 10:32:50;;;;;;;2.15;1.20;;;19.20;73.30;;;;;;5134079;27;20175;-63
2023/10/08 10:35:18;;;;;;;3.35;1.70;;;19.20;73.30;;;;;;5098279;27;20185;-64
2023/10/08 10:37:51;;;;;;;2.33;1.60;;;19.20;73.60;;;;;;5133580;27;20176;-64
2023/10/08 10:40:41;;;;;;;3.90;1.30;;;19.20;73.50;;;;;;5133515;27;20190;-63
2023/10/08 10:43:07;;;;;;;8.18;2.05;;;19.20;73.30;;;;;;5133544;27;20173;-72
2023/10/08 10:45:47;;;;;;;3.35;1.70;;;19.30;73.50;;;;;;5133460;27;20211;-72
2023/10/08 10:51:07;;;;;;;6.18;2.67;;;19.40;73.80;;;;;;5133450;27;20565;-72
2023/10/08 10:53:56;;;;;;;7.82;2.85;;;19.40;74.40;;;;;;5104397;27;20236;-66
2023/10/08 10:56:29;;;;;;;2.97;2.25;;;19.50;75.00;;;;;;5132825;27;20172;-66
2023/10/08 10:58:59;;;;;;;14.40;3.00;;;19.50;73.90;;;;;;5133676;27;20246;-66
2023/10/08 11:01:29;;;;;;;7.32;2.33;;;19.60;74.30;;;;;;5133556;27;20180;-64
2023/10/08 11:03:57;;;;;;;4.00;1.88;;;19.60;74.30;;;;;;5132983;27;20187;-66
2023/10/08 11:06:23;;;;;;;7.53;2.53;;;19.70;74.30;;;;;;5115228;28;20172;-66
2023/10/08 11:08:50;;;;;;;4.45;2.13;;;19.70;74.80;;;;;;5133109;27;20172;-65
2023/10/08 11:11:17;;;;;;;8.30;2.50;;;19.70;74.40;;;;;;5098151;28;20257;-65
2023/10/08 11:13:46;;;;;;;5.68;2.30;;;19.70;75.40;;;;;;5133436;28;20575;-64
2023/10/08 11:16:13;;;;;;;8.07;2.25;;;19.80;74.50;;;;;;5114662;28;20176;-65
2023/10/08 11:18:47;;;;;;;5.55;2.67;;;19.80;74.40;;;;;;5133248;28;20215;-65
2023/10/08 11:21:15;;;;;;;5.40;1.73;;;19.80;74.30;;;;;;5132958;28;20256;-64
2023/10/08 11:23:52;;;;;;;9.63;3.00;;;19.80;75.20;;;;;;5123926;28;20626;-66
2023/10/08 11:26:19;;;;;;;6.63;2.17;;;19.80;74.30;;;;;;5126345;28;20653;-65
2023/10/08 11:28:47;;;;;;;9.02;2.63;;;19.80;74.30;;;;;;5124356;28;20197;-65
2023/10/08 11:31:14;;;;;;;4.85;2.65;;;19.90;74.40;;;;;;5116651;28;20201;-65
2023/10/08 11:33:53;;;;;;;7.07;2.58;;;19.90;74.40;;;;;;5112649;28;20177;-66
2023/10/08 11:36:19;;;;;;;5.03;2.28;;;19.90;74.30;;;;;;5112528;28;20631;-65
2023/10/08 11:38:53;;;;;;;7.35;2.35;;;19.90;74.40;;;;;;5112056;28;20203;-65
2023/10/08 11:41:22;;;;;;;7.10;2.75;;;19.90;74.50;;;;;;5116594;28;20181;-63
2023/10/08 11:43:56;;;;;;;6.60;2.72;;;19.90;74.40;;;;;;5116802;28;20260;-65
2023/10/08 11:46:25;;;;;;;7.25;2.40;;;19.90;74.20;;;;;;5116267;28;20253;-67
2023/10/08 11:48:51;;;;;;;8.32;2.42;;;19.90;74.40;;;;;;5116508;28;20217;-64
2023/10/08 11:51:17;;;;;;;9.85;2.67;;;19.80;74.50;;;;;;5123373;27;20646;-63
2023/10/08 11:53:45;;;;;;;7.22;2.50;;;19.90;74.50;;;;;;5135143;27;20591;-65
2023/10/08 11:56:14;;;;;;;9.65;2.10;;;19.90;74.50;;;;;;5124977;27;20252;-64
2023/10/08 11:58:44;;;;;;;7.32;2.97;;;19.90;74.40;;;;;;5123891;27;20285;-66
2023/10/08 12:01:15;;;;;;;6.63;2.30;;;19.80;74.30;;;;;;5118088;27;20217;-64
2023/10/08 12:03:41;;;;;;;5.97;2.10;;;19.80;74.30;;;;;;5125044;27;20768;-65
2023/10/08 12:06:07;;;;;;;4.90;2.33;;;19.80;74.30;;;;;;5119970;27;20514;-66
2023/10/08 12:08:39;;;;;;;5.15;2.20;;;19.80;74.30;;;;;;5131207;27;20172;-65
2023/10/08 12:11:11;;;;;;;5.05;2.10;;;19.80;74.20;;;;;;5118007;27;20180;-65
2023/10/08 12:13:37;;;;;;;5.78;2.58;;;19.80;74.20;;;;;;5115528;28;20173;-63
2023/10/08 12:16:06;;;;;;;4.97;2.35;;;19.90;74.40;;;;;;5116233;28;20177;-66
2023/10/08 12:18:39;;;;;;;4.78;2.10;;;19.90;74.10;;;;;;5115840;28;20193;-65
2023/10/08 12:21:05;;;;;;;5.05;2.25;;;19.90;74.10;;;;;;5115165;28;20200;-65
2023/10/08 12:23:33;;;;;;;5.75;2.05;;;19.90;74.00;;;;;;5115765;28;20200;-66
2023/10/08 12:25:59;;;;;;;6.53;2.28;;;19.80;74.00;;;;;;5115987;28;20182;-67
2023/10/08 12:28:26;;;;;;;5.80;2.33;;;19.80;74.10;;;;;;5097267;28;20252;-67
2023/10/08 12:30:55;;;;;;;8.70;2.35;;;19.90;74.10;;;;;;5115983;28;20199;-68
2023/10/08 12:33:24;;;;;;;6.22;2.17;;;19.80;74.00;;;;;;5114802;28;20704;-66
2023/10/08 12:35:49;;;;;;;7.72;2.13;;;19.80;74.00;;;;;;5115830;28;20251;-65
2023/10/08 12:38:15;;;;;;;6.45;2.40;;;19.90;74.00;;;;;;5115105;28;20225;-64
2023/10/08 12:40:47;;;;;;;6.00;2.28;;;19.80;73.90;;;;;;5114892;28;20200;-64
2023/10/08 12:43:19;;;;;;;7.88;2.15;;;19.90;73.90;;;;;;5115474;28;20173;-67
2023/10/08 12:45:53;;;;;;;8.38;2.40;;;20.00;73.90;;;;;;5115558;28;20662;-67
2023/10/08 12:48:24;;;;;;;7.03;2.35;;;19.90;73.60;;;;;;5096426;28;20231;-66
2023/10/08 12:50:53;;;;;;;7.45;2.50;;;19.90;73.90;;;;;;5118158;28;20180;-67
2023/10/08 12:53:26;;;;;;;10.00;2.97;;;19.90;73.80;;;;;;5122524;27;20257;-66
2023/10/08 12:55:56;;;;;;;10.35;2.40;;;19.90;74.00;;;;;;5122953;27;20185;-64
2023/10/08 12:58:29;;;;;;;8.15;2.78;;;19.90;74.00;;;;;;5115061;28;20207;-66
2023/10/08 13:01:03;;;;;;;7.60;2.55;;;19.90;74.00;;;;;;5082404;28;20181;-66
2023/10/08 13:03:32;;;;;;;7.53;2.17;;;19.90;74.00;;;;;;5114493;28;20226;-66
2023/10/08 13:06:04;;;;;;;6.93;2.67;;;19.90;74.10;;;;;;5115085;28;20181;-66
2023/10/08 13:08:36;;;;;;;8.43;2.38;;;19.90;74.10;;;;;;5097170;28;20227;-67
2023/10/08 13:11:01;;;;;;;7.07;2.33;;;19.90;74.10;;;;;;5114910;28;20166;-67
2023/10/08 13:13:27;;;;;;;4.38;2.00;;;19.90;74.10;;;;;;5114873;28;20177;-66
2023/10/08 13:15:56;;;;;;;6.22;2.58;;;19.90;74.10;;;;;;5114488;28;20178;-65
2023/10/08 13:18:25;;;;;;;4.25;2.00;;;19.90;74.00;;;;;;5096836;28;20216;-65
2023/10/08 13:20:51;;;;;;;6.03;1.92;;;19.90;74.10;;;;;;5097090;28;20249;-66
2023/10/08 13:23:18;;;;;;;4.18;2.20;;;19.90;74.00;;;;;;5113812;28;20196;-66
2023/10/08 13:25:46;;;;;;;9.10;2.40;;;19.90;74.10;;;;;;5114803;28;20252;-65
2023/10/08 13:28:12;;;;;;;4.07;1.98;;;19.90;74.10;;;;;;5080055;28;20219;-66
2023/10/08 13:30:38;;;;;;;4.75;2.28;;;19.90;74.10;;;;;;5113888;28;20169;-66
2023/10/08 13:33:03;;;;;;;3.13;2.00;;;19.90;74.10;;;;;;5120476;27;20172;-66
2023/10/08 13:35:29;;;;;;;5.90;2.25;;;19.90;74.20;;;;;;5120424;27;20635;-67
2023/10/08 13:37:55;;;;;;;5.97;2.15;;;19.90;74.20;;;;;;5114060;28;20172;-67
2023/10/08 13:40:32;;;;;;;9.85;2.38;;;19.90;74.20;;;;;;5134813;27;20247;-66
2023/10/08 13:42:58;;;;;;;4.25;1.88;;;19.90;74.20;;;;;;5134930;27;20172;-67
2023/10/08 13:45:26;;;;;;;3.47;1.70;;;19.90;74.20;;;;;;5134059;27;20181;-67
2023/10/08 13:47:52;;;;;;;5.20;1.90;;;19.90;74.20;;;;;;5134769;27;20224;-67
2023/10/08 13:50:18;;;;;;;4.60;1.85;;;19.90;74.20;;;;;;5134388;27;20172;-64
2023/10/08 13:52:44;;;;;;;6.40;2.03;;;19.90;74.20;;;;;;5115627;27;20554;-65
2023/10/08 13:55:19;;;;;;;5.90;1.98;;;19.90;74.20;;;;;;5134444;27;20179;-65
2023/10/08 13:57:46;;;;;;;9.40;2.28;;;19.90;74.20;;;;;;5133613;27;20186;-66
2023/10/08 14:00:15;;;;;;;4.50;2.13;;;19.90;74.20;;;;;;5134363;27;20250;-67
2023/10/08 14:02:44;;;;;;;3.55;2.33;;;19.90;74.10;;;;;;5134528;27;20172;-68